createdAt,value
2019-03-05T00:01:45.725Z,2.60
2019-03-05T00:04:14.891Z,3.00
2019-03-05T00:06:44.067Z,3.10
2019-03-05T00:09:21.107Z,3.37
2019-03-05T00:11:50.279Z,3.83
2019-03-05T00:14:21.075Z,2.90
2019-03-05T00:16:50.313Z,3.40
2019-03-05T00:19:20.953Z,2.77
2019-03-05T00:21:50.135Z,3.03
2019-03-05T00:24:55.649Z,4.23
2019-03-05T00:27:24.838Z,2.67
2019-03-05T00:30:21.512Z,3.27
2019-03-05T00:32:53.749Z,2.80
2019-03-05T00:35:44.061Z,2.67
2019-03-05T00:38:16.297Z,2.70
2019-03-05T00:40:56.796Z,2.30
2019-03-05T00:43:47.059Z,2.40
2019-03-05T00:46:25.265Z,2.77
2019-03-05T00:49:00.311Z,2.33
2019-03-05T00:51:44.403Z,2.63
2019-03-05T00:54:51.719Z,2.00
2019-03-05T00:57:35.588Z,2.50
2019-03-05T01:00:33.762Z,3.20
2019-03-05T01:03:20.439Z,2.73
2019-03-05T01:05:58.569Z,3.10
2019-03-05T01:08:28.980Z,2.50
2019-03-05T01:10:58.203Z,2.40
2019-03-05T01:13:27.512Z,3.27
2019-03-05T01:15:56.894Z,2.20
2019-03-05T01:18:26.092Z,2.27
2019-03-05T01:20:56.012Z,2.77
2019-03-05T01:23:25.178Z,2.40
2019-03-05T01:25:54.342Z,2.13
2019-03-05T01:28:23.578Z,2.37
2019-03-05T01:30:56.919Z,1.90
2019-03-05T01:33:27.786Z,2.60
2019-03-05T01:35:58.707Z,2.37
2019-03-05T01:38:29.539Z,2.40
2019-03-05T01:41:00.397Z,2.07
2019-03-05T01:43:29.802Z,2.23
2019-03-05T01:45:59.001Z,1.60
2019-03-05T01:48:28.201Z,1.90
2019-03-05T01:50:57.407Z,2.60
2019-03-05T01:53:26.596Z,2.27
2019-03-05T01:55:55.809Z,1.93
2019-03-05T01:58:25.089Z,2.40
2019-03-05T02:00:54.289Z,2.10
2019-03-05T02:03:23.485Z,2.20
2019-03-05T02:05:52.815Z,1.87
2019-03-05T02:08:22.189Z,2.03
2019-03-05T02:10:51.490Z,2.37
2019-03-05T02:13:20.700Z,1.90
2019-03-05T02:15:49.893Z,1.80
2019-03-05T02:18:20.442Z,1.80
2019-03-05T02:20:49.806Z,2.23
2019-03-05T02:23:27.664Z,1.90
2019-03-05T02:26:05.480Z,1.53
2019-03-05T02:28:46.805Z,1.80
2019-03-05T02:31:30.955Z,1.80
2019-03-05T02:34:12.257Z,1.47
2019-03-05T02:37:01.221Z,2.23
2019-03-05T02:39:50.782Z,2.40
2019-03-05T02:42:41.182Z,1.83
2019-03-05T02:45:42.200Z,2.47
2019-03-05T02:48:35.890Z,1.60
2019-03-05T02:51:23.457Z,2.03
2019-03-05T02:54:18.419Z,1.90
2019-03-05T02:57:08.691Z,2.40
2019-03-05T02:59:38.515Z,2.30
2019-03-05T03:02:12.823Z,2.63
2019-03-05T03:04:46.446Z,2.10
2019-03-05T03:07:15.655Z,2.63
2019-03-05T03:09:53.759Z,3.23
2019-03-05T03:12:23.047Z,1.97
2019-03-05T03:14:52.348Z,2.07
2019-03-05T03:17:21.565Z,2.70
2019-03-05T03:19:50.755Z,1.70
2019-03-05T03:22:19.952Z,2.30
2019-03-05T03:24:49.161Z,2.00
2019-03-05T03:27:36.552Z,1.60
2019-03-05T03:30:12.355Z,1.87
2019-03-05T03:32:41.568Z,2.30
2019-03-05T03:35:12.711Z,2.17
2019-03-05T03:37:41.895Z,2.30
2019-03-05T03:40:13.852Z,1.97
2019-03-05T03:42:43.128Z,1.97
2019-03-05T03:45:19.997Z,1.37
2019-03-05T03:47:49.184Z,1.83
2019-03-05T03:50:18.422Z,1.93
2019-03-05T03:52:47.713Z,2.30
2019-03-05T03:55:16.909Z,1.73
2019-03-05T03:57:46.402Z,2.07
2019-03-05T04:00:21.024Z,1.90
2019-03-05T04:02:50.498Z,2.60
2019-03-05T04:05:19.728Z,1.93
2019-03-05T04:07:48.847Z,2.30
2019-03-05T04:10:18.457Z,2.20
2019-03-05T04:12:47.680Z,2.50
2019-03-05T04:15:18.918Z,2.10
2019-03-05T04:17:48.317Z,2.33
2019-03-05T04:20:19.576Z,2.57
2019-03-05T04:22:48.839Z,2.23
2019-03-05T04:25:18.049Z,2.83
2019-03-05T04:27:47.250Z,2.60
2019-03-05T04:30:16.540Z,2.70
2019-03-05T04:32:45.738Z,2.30
2019-03-05T04:35:15.038Z,2.63
2019-03-05T04:37:44.235Z,1.87
2019-03-05T04:40:13.755Z,2.27
2019-03-05T04:42:42.959Z,2.53
2019-03-05T04:45:52.981Z,3.30
2019-03-05T04:48:22.219Z,3.00
2019-03-05T04:51:09.316Z,2.47
2019-03-05T04:53:38.495Z,3.57
2019-03-05T04:56:07.775Z,3.13
2019-03-05T04:58:37.004Z,3.27
2019-03-05T05:01:06.237Z,2.87
2019-03-05T05:03:36.448Z,2.80
2019-03-05T05:06:05.637Z,2.47
2019-03-05T05:08:34.879Z,3.27
2019-03-05T05:11:04.133Z,3.27
2019-03-05T05:13:33.332Z,3.33
2019-03-05T05:16:02.524Z,3.80
2019-03-05T05:18:31.726Z,2.90
2019-03-05T05:21:00.972Z,3.63
2019-03-05T05:23:30.139Z,2.90
2019-03-05T05:25:59.359Z,3.20
2019-03-05T05:28:28.555Z,2.93
2019-03-05T05:30:57.771Z,4.43
2019-03-05T05:33:27.018Z,4.60
2019-03-05T05:35:56.292Z,4.23
2019-03-05T05:38:25.606Z,6.17
2019-03-05T05:40:54.916Z,5.30
2019-03-05T05:43:29.459Z,6.27
2019-03-05T05:45:58.658Z,5.17
2019-03-05T05:48:27.877Z,5.23
2019-03-05T05:50:57.055Z,5.23
2019-03-05T05:53:26.270Z,5.03
2019-03-05T05:55:55.459Z,5.73
2019-03-05T05:58:24.694Z,5.50
2019-03-05T06:00:55.549Z,4.83
2019-03-05T06:03:24.750Z,4.20
2019-03-05T06:05:53.974Z,5.10
2019-03-05T06:08:23.290Z,5.00
2019-03-05T06:10:53.226Z,4.30
2019-03-05T06:13:22.579Z,5.17
2019-03-05T06:15:51.852Z,4.43
2019-03-05T06:18:21.074Z,3.83
2019-03-05T06:20:50.384Z,4.40
2019-03-05T06:23:20.040Z,3.97
2019-03-05T06:25:50.333Z,3.97
2019-03-05T06:28:19.527Z,3.50
2019-03-05T06:30:48.739Z,3.80
2019-03-05T06:33:17.942Z,3.70
2019-03-05T06:35:47.143Z,4.47
2019-03-05T06:38:16.326Z,4.50
2019-03-05T06:40:45.618Z,3.53
2019-03-05T06:43:14.916Z,3.93
2019-03-05T06:45:44.124Z,4.40
2019-03-05T06:48:13.319Z,4.10
2019-03-05T06:51:00.945Z,3.70
2019-03-05T06:53:30.145Z,4.40
2019-03-05T06:56:17.375Z,3.67
2019-03-05T06:58:46.574Z,4.60
2019-03-05T07:01:15.820Z,3.80
2019-03-05T07:03:45.069Z,3.90
2019-03-05T07:06:51.945Z,4.53
2019-03-05T07:09:32.503Z,3.57
2019-03-05T07:12:28.851Z,3.90
2019-03-05T07:15:10.152Z,4.57
2019-03-05T07:18:13.883Z,3.73
2019-03-05T07:21:11.598Z,3.40
2019-03-05T07:24:00.154Z,3.80
2019-03-05T07:26:29.362Z,4.43
2019-03-05T07:28:58.564Z,3.47
2019-03-05T07:31:27.782Z,3.93
2019-03-05T07:33:56.984Z,3.70
2019-03-05T07:36:26.274Z,3.27
2019-03-05T07:38:55.510Z,3.57
2019-03-05T07:41:24.761Z,3.40
2019-03-05T07:43:53.980Z,3.97
2019-03-05T07:46:41.373Z,4.30
2019-03-05T07:49:28.635Z,4.40
2019-03-05T07:51:59.532Z,4.43
2019-03-05T07:54:28.763Z,3.57
2019-03-05T07:56:57.963Z,4.00
2019-03-05T07:59:27.637Z,4.33
2019-03-05T08:01:56.835Z,3.93
2019-03-05T08:04:26.131Z,3.67
2019-03-05T08:06:55.338Z,4.87
2019-03-05T08:09:27.602Z,3.73
2019-03-05T08:12:08.699Z,4.37
2019-03-05T08:14:55.976Z,3.90
2019-03-05T08:17:26.012Z,3.50
2019-03-05T08:19:55.330Z,4.30
2019-03-05T08:22:24.809Z,4.13
2019-03-05T08:24:54.072Z,4.43
2019-03-05T08:27:41.258Z,4.07
2019-03-05T08:30:28.574Z,4.10
2019-03-05T08:32:57.808Z,4.00
2019-03-05T08:35:27.005Z,3.83
2019-03-05T08:37:56.204Z,4.20
2019-03-05T08:40:25.471Z,3.53
2019-03-05T08:42:54.670Z,3.83
2019-03-05T08:45:29.400Z,3.83
2019-03-05T08:47:54.886Z,3.43
2019-03-05T08:50:24.184Z,3.90
2019-03-05T08:52:53.405Z,3.50
2019-03-05T08:55:22.698Z,3.23
2019-03-05T08:57:51.993Z,3.63
2019-03-05T09:00:21.747Z,4.33
2019-03-05T09:02:50.930Z,4.10
2019-03-05T09:05:20.942Z,3.00
2019-03-05T09:07:50.313Z,3.87
2019-03-05T09:10:22.428Z,3.77
2019-03-05T09:13:10.237Z,3.40
2019-03-05T09:15:39.453Z,3.60
2019-03-05T09:18:08.687Z,4.10
2019-03-05T09:20:38.671Z,3.60
2019-03-05T09:23:07.878Z,3.47
2019-03-05T09:25:37.295Z,3.00
2019-03-05T09:28:07.464Z,3.30
2019-03-05T09:30:36.705Z,2.83
2019-03-05T09:33:05.880Z,3.70
2019-03-05T09:35:53.342Z,3.03
2019-03-05T09:38:31.450Z,3.50
2019-03-05T09:41:00.652Z,3.33
2019-03-05T09:43:29.992Z,3.47
2019-03-05T09:45:59.370Z,2.80
2019-03-05T09:48:28.546Z,3.10
2019-03-05T09:50:57.710Z,2.60
2019-03-05T09:53:26.889Z,2.70
2019-03-05T09:55:56.614Z,3.30
2019-03-05T09:58:25.838Z,2.67
2019-03-05T10:00:55.047Z,2.40
2019-03-05T10:03:24.140Z,2.73
2019-03-05T10:05:53.394Z,2.63
2019-03-05T10:08:31.884Z,3.00
2019-03-05T10:10:53.596Z,3.00
2019-03-05T10:13:22.844Z,2.97
2019-03-05T10:15:53.461Z,2.60
2019-03-05T10:18:22.795Z,2.60
2019-03-05T10:20:51.981Z,2.30
2019-03-05T10:23:21.288Z,2.20
2019-03-05T10:25:50.525Z,3.07
2019-03-05T10:28:19.697Z,3.20
2019-03-05T10:30:48.901Z,2.70
2019-03-05T10:33:18.674Z,2.53
2019-03-05T10:35:47.893Z,2.90
2019-03-05T10:38:17.060Z,3.00
2019-03-05T10:40:49.534Z,3.30
2019-03-05T10:43:19.142Z,3.03
2019-03-05T10:45:49.284Z,2.60
2019-03-05T10:48:20.659Z,2.93
2019-03-05T10:50:51.578Z,3.47
2019-03-05T10:53:20.902Z,3.03
2019-03-05T10:55:50.151Z,2.23
2019-03-05T10:58:19.329Z,2.80
2019-03-05T11:00:56.211Z,2.70
2019-03-05T11:03:29.370Z,2.67
2019-03-05T11:05:58.807Z,2.70
2019-03-05T11:08:28.526Z,2.70
2019-03-05T11:10:59.144Z,2.67
2019-03-05T11:13:28.421Z,2.43
2019-03-05T11:16:02.550Z,1.97
2019-03-05T11:18:33.686Z,1.97
2019-03-05T11:21:02.907Z,2.03
2019-03-05T11:23:32.068Z,2.20
2019-03-05T11:26:01.292Z,2.40
2019-03-05T11:28:30.473Z,2.63
2019-03-05T11:30:59.717Z,2.20
2019-03-05T11:33:28.980Z,2.30
2019-03-05T11:35:58.219Z,2.47
2019-03-05T11:38:27.391Z,2.10
2019-03-05T11:40:56.565Z,1.87
2019-03-05T11:43:25.736Z,2.00
2019-03-05T11:45:55.821Z,1.93
2019-03-05T11:48:24.986Z,2.17
2019-03-05T11:50:54.153Z,2.20
2019-03-05T11:53:23.493Z,2.13
2019-03-05T11:55:53.246Z,1.90
2019-03-05T11:58:22.449Z,2.00
2019-03-05T12:01:02.029Z,1.73
2019-03-05T12:03:31.219Z,2.17
2019-03-05T12:06:00.387Z,2.33
2019-03-05T12:08:29.567Z,2.20
2019-03-05T12:10:58.729Z,2.67
2019-03-05T12:13:27.971Z,2.60
2019-03-05T12:15:57.402Z,2.50
2019-03-05T12:18:26.579Z,2.30
2019-03-05T12:20:55.758Z,1.63
2019-03-05T12:23:24.984Z,1.80
2019-03-05T12:25:54.190Z,2.10
2019-03-05T12:28:23.694Z,1.90
2019-03-05T12:30:53.498Z,2.20
2019-03-05T12:33:22.729Z,2.50
2019-03-05T12:35:52.005Z,1.97
2019-03-05T12:38:21.204Z,2.00
2019-03-05T12:40:50.998Z,1.93
2019-03-05T12:43:20.218Z,1.80
2019-03-05T12:45:49.428Z,1.50
2019-03-05T12:48:18.627Z,1.67
2019-03-05T12:50:47.913Z,2.23
2019-03-05T12:53:18.213Z,1.37
2019-03-05T12:55:47.384Z,1.80
2019-03-05T12:58:16.551Z,1.73
2019-03-05T13:00:45.712Z,1.67
2019-03-05T13:03:14.876Z,1.87
2019-03-05T13:05:44.068Z,1.50
2019-03-05T13:08:13.261Z,2.30
2019-03-05T13:10:45.111Z,2.10
2019-03-05T13:13:15.382Z,1.70
2019-03-05T13:15:45.305Z,2.03
2019-03-05T13:18:14.880Z,2.07
2019-03-05T13:20:44.059Z,1.67
2019-03-05T13:23:14.475Z,1.90
2019-03-05T13:25:43.647Z,1.80
2019-03-05T13:28:12.935Z,2.00
2019-03-05T13:30:42.897Z,1.90
2019-03-05T13:33:12.064Z,2.30
2019-03-05T13:35:41.242Z,2.00
2019-03-05T13:38:11.067Z,2.10
2019-03-05T13:40:40.795Z,1.87
2019-03-05T13:43:10.164Z,2.23
2019-03-05T13:45:42.323Z,2.57
2019-03-05T13:48:19.801Z,1.63
2019-03-05T13:51:08.733Z,2.60
2019-03-05T13:54:01.687Z,2.80
2019-03-05T13:56:52.581Z,2.10
2019-03-05T13:59:34.721Z,2.30
2019-03-05T14:02:04.913Z,2.27
2019-03-05T14:04:37.178Z,2.03
2019-03-05T14:07:12.314Z,2.10
2019-03-05T14:09:40.393Z,2.63
2019-03-05T14:12:09.505Z,2.67
2019-03-05T14:14:38.772Z,1.83
2019-03-05T14:17:15.284Z,2.00
2019-03-05T14:19:44.565Z,1.83
2019-03-05T14:22:13.814Z,1.80
2019-03-05T14:24:43.169Z,2.13
2019-03-05T14:27:12.737Z,1.80
2019-03-05T14:29:42.035Z,2.30
2019-03-05T14:32:11.680Z,1.40
2019-03-05T14:34:40.977Z,2.37
2019-03-05T14:37:10.179Z,2.57
2019-03-05T14:39:40.333Z,2.20
2019-03-05T14:42:11.233Z,1.93
2019-03-05T14:44:41.499Z,1.93
2019-03-05T14:47:28.611Z,2.10
2019-03-05T14:50:15.523Z,2.20
2019-03-05T14:52:44.811Z,2.57
2019-03-05T14:55:14.615Z,2.73
2019-03-05T14:57:43.872Z,2.10
2019-03-05T15:00:16.199Z,1.97
2019-03-05T15:02:46.385Z,2.20
2019-03-05T15:05:15.911Z,2.67
2019-03-05T15:07:45.288Z,2.17
2019-03-05T15:10:14.517Z,2.23
2019-03-05T15:12:43.799Z,1.87
2019-03-05T15:15:22.016Z,1.90
2019-03-05T15:17:51.500Z,1.50
2019-03-05T15:20:21.613Z,2.13
2019-03-05T15:22:50.990Z,2.30
2019-03-05T15:25:20.302Z,2.33
2019-03-05T15:27:49.673Z,1.90
2019-03-05T15:30:21.458Z,2.00
2019-03-05T15:33:09.189Z,1.97
2019-03-05T15:35:56.270Z,1.93
2019-03-05T15:38:31.393Z,2.20
2019-03-05T15:41:00.643Z,2.10
2019-03-05T15:43:29.816Z,2.63
2019-03-05T15:45:59.350Z,2.27
2019-03-05T15:48:28.612Z,1.73
2019-03-05T15:50:57.817Z,1.63
2019-03-05T15:53:27.743Z,2.00
2019-03-05T15:55:57.091Z,1.63
2019-03-05T15:58:26.344Z,1.53
2019-03-05T16:00:55.664Z,1.60
2019-03-05T16:03:24.931Z,1.97
2019-03-05T16:05:57.740Z,1.97
2019-03-05T16:08:26.253Z,1.93
2019-03-05T16:10:58.583Z,1.97
2019-03-05T16:13:26.509Z,2.63
2019-03-05T16:15:55.809Z,2.03
2019-03-05T16:18:25.013Z,2.03
2019-03-05T16:20:58.125Z,2.00
2019-03-05T16:23:28.419Z,2.40
2019-03-05T16:25:57.197Z,1.87
2019-03-05T16:28:26.429Z,2.07
2019-03-05T16:30:57.296Z,1.70
2019-03-05T16:33:32.376Z,2.17
2019-03-05T16:36:10.043Z,1.90
2019-03-05T16:38:59.056Z,3.07
2019-03-05T16:41:39.540Z,2.73
2019-03-05T16:44:12.960Z,2.30
2019-03-05T16:46:55.869Z,2.80
2019-03-05T16:49:26.744Z,2.73
2019-03-05T16:52:08.186Z,3.57
2019-03-05T16:54:54.242Z,3.90
2019-03-05T16:57:25.181Z,2.83
2019-03-05T17:00:08.100Z,3.37
2019-03-05T17:02:54.100Z,2.97
2019-03-05T17:05:38.271Z,3.17
2019-03-05T17:08:14.753Z,2.80
2019-03-05T17:11:03.973Z,2.47
2019-03-05T17:13:33.274Z,2.93
2019-03-05T17:16:02.646Z,3.77
2019-03-05T17:18:31.889Z,4.20
2019-03-05T17:21:02.314Z,3.00
2019-03-05T17:23:31.614Z,3.33
2019-03-05T17:26:01.005Z,4.03
2019-03-05T17:28:30.212Z,3.33
2019-03-05T17:30:59.441Z,3.33
2019-03-05T17:33:28.641Z,3.40
2019-03-05T17:35:57.867Z,3.23
2019-03-05T17:38:27.162Z,4.07
2019-03-05T17:40:56.465Z,4.00
2019-03-05T17:43:25.865Z,3.10
2019-03-05T17:45:55.116Z,3.43
2019-03-05T17:48:24.358Z,3.10
2019-03-05T17:50:53.572Z,2.93
2019-03-05T17:53:22.808Z,3.40
2019-03-05T17:55:52.016Z,3.40
2019-03-05T17:58:21.355Z,3.53
2019-03-05T18:00:51.411Z,3.53
2019-03-05T18:03:20.691Z,3.60
2019-03-05T18:05:49.930Z,4.07
2019-03-05T18:08:20.663Z,4.13
2019-03-05T18:10:51.669Z,3.00
2019-03-05T18:13:21.212Z,3.97
2019-03-05T18:15:50.571Z,4.10
2019-03-05T18:18:24.367Z,3.50
2019-03-05T18:20:53.590Z,4.07
2019-03-05T18:23:22.769Z,3.57
2019-03-05T18:25:52.912Z,3.23
2019-03-05T18:28:22.086Z,3.50
2019-03-05T18:30:51.349Z,4.30
2019-03-05T18:33:20.638Z,3.00
2019-03-05T18:35:49.831Z,3.00
2019-03-05T18:38:19.001Z,3.37
2019-03-05T18:40:48.275Z,3.00
2019-03-05T18:43:17.494Z,3.60
2019-03-05T18:45:46.801Z,3.37
2019-03-05T18:48:15.981Z,3.30
2019-03-05T18:50:45.677Z,2.60
2019-03-05T18:53:16.632Z,3.30
2019-03-05T18:55:46.343Z,3.27
2019-03-05T18:58:15.541Z,2.73
2019-03-05T19:00:44.810Z,3.70
2019-03-05T19:03:20.079Z,3.40
2019-03-05T19:05:49.444Z,3.33
2019-03-05T19:08:18.643Z,3.13
2019-03-05T19:10:47.842Z,3.37
2019-03-05T19:13:17.120Z,3.30
2019-03-05T19:15:46.575Z,3.03
2019-03-05T19:18:15.763Z,3.53
2019-03-05T19:20:45.403Z,3.13
2019-03-05T19:23:14.568Z,3.43
2019-03-05T19:25:45.680Z,3.30
2019-03-05T19:28:15.024Z,2.90
2019-03-05T19:30:46.374Z,3.57
2019-03-05T19:33:15.573Z,2.93
2019-03-05T19:35:44.795Z,2.80
2019-03-05T19:38:14.049Z,3.57
2019-03-05T19:40:45.438Z,2.90
2019-03-05T19:43:15.575Z,2.90
2019-03-05T19:45:45.047Z,3.80
2019-03-05T19:48:14.221Z,3.13
2019-03-05T19:50:43.677Z,3.10
2019-03-05T19:53:12.852Z,3.00
2019-03-05T19:55:42.011Z,2.93
2019-03-05T19:58:12.182Z,3.70
2019-03-05T20:00:46.059Z,2.77
2019-03-05T20:03:15.215Z,3.00
2019-03-05T20:05:44.474Z,2.83
2019-03-05T20:08:13.919Z,3.10
2019-03-05T20:10:43.315Z,2.80
2019-03-05T20:13:12.859Z,2.90
2019-03-05T20:15:43.144Z,2.97
2019-03-05T20:18:12.323Z,2.83
2019-03-05T20:20:41.556Z,3.30
2019-03-05T20:23:10.741Z,3.07
2019-03-05T20:25:40.428Z,3.17
2019-03-05T20:28:09.607Z,3.70
2019-03-05T20:30:41.303Z,3.20
2019-03-05T20:33:10.547Z,3.37
2019-03-05T20:35:39.773Z,3.90
2019-03-05T20:38:09.396Z,3.90
2019-03-05T20:40:56.813Z,3.60
2019-03-05T20:43:25.989Z,3.90
2019-03-05T20:46:04.216Z,4.03
2019-03-05T20:48:51.501Z,3.63
2019-03-05T20:51:20.718Z,3.83
2019-03-05T20:53:52.738Z,3.33
2019-03-05T20:56:21.917Z,4.03
2019-03-05T20:58:51.098Z,3.40
2019-03-05T21:01:20.266Z,3.63
2019-03-05T21:03:49.990Z,3.90
2019-03-05T21:06:19.324Z,4.43
2019-03-05T21:08:48.499Z,4.00
2019-03-05T21:11:17.668Z,4.27
2019-03-05T21:13:46.832Z,4.27
2019-03-05T21:16:16.130Z,3.93
2019-03-05T21:18:45.545Z,4.80
2019-03-05T21:21:14.753Z,3.87
2019-03-05T21:23:43.900Z,4.27
2019-03-05T21:26:13.061Z,4.20
2019-03-05T21:28:42.251Z,5.47
2019-03-05T21:31:11.602Z,4.43
2019-03-05T21:33:40.775Z,5.43
2019-03-05T21:36:10.384Z,4.13
2019-03-05T21:38:41.168Z,4.90
2019-03-05T21:41:10.439Z,5.27
2019-03-05T21:43:39.687Z,4.97
2019-03-05T21:46:12.266Z,4.57
2019-03-05T21:48:41.457Z,4.63
2019-03-05T21:51:10.625Z,4.53
2019-03-05T21:53:40.455Z,4.73
2019-03-05T21:56:10.575Z,4.80
2019-03-05T21:58:39.737Z,4.93
2019-03-05T22:01:09.070Z,4.37
2019-03-05T22:03:38.231Z,4.70
2019-03-05T22:06:07.569Z,5.07
2019-03-05T22:08:38.123Z,5.37
2019-03-05T22:11:07.441Z,4.57
2019-03-05T22:13:36.646Z,5.67
2019-03-05T22:16:05.999Z,4.73
2019-03-05T22:18:35.256Z,5.10
2019-03-05T22:21:04.651Z,4.93
2019-03-05T22:23:33.950Z,4.97
2019-03-05T22:26:03.201Z,5.30
2019-03-05T22:28:32.540Z,5.90
2019-03-05T22:31:01.751Z,4.37
2019-03-05T22:33:31.220Z,4.87
2019-03-05T22:36:00.315Z,5.40
2019-03-05T22:38:31.268Z,5.37
2019-03-05T22:41:00.756Z,5.10
2019-03-05T22:43:29.917Z,5.00
2019-03-05T22:45:59.080Z,6.33
2019-03-05T22:48:28.250Z,6.17
2019-03-05T22:50:57.434Z,5.83
2019-03-05T22:53:26.791Z,5.43
2019-03-05T22:55:55.969Z,5.63
2019-03-05T22:58:25.135Z,6.20
2019-03-05T23:01:10.096Z,6.80
2019-03-05T23:03:40.412Z,6.50
2019-03-05T23:06:12.492Z,6.37
2019-03-05T23:08:41.898Z,6.60
2019-03-05T23:11:11.033Z,6.53
2019-03-05T23:13:40.343Z,6.67
2019-03-05T23:16:09.532Z,6.67
2019-03-05T23:18:38.698Z,6.30
2019-03-05T23:21:08.398Z,6.30
2019-03-05T23:23:37.590Z,7.27
2019-03-05T23:26:07.174Z,7.70
2019-03-05T23:28:36.823Z,7.10
2019-03-05T23:31:07.059Z,7.70
2019-03-05T23:33:36.293Z,7.17
2019-03-05T23:36:05.639Z,8.67
2019-03-05T23:38:53.051Z,8.10
2019-03-05T23:41:40.520Z,7.83
2019-03-05T23:44:09.695Z,8.60
2019-03-05T23:46:38.890Z,8.40
2019-03-05T23:49:08.239Z,10.37
2019-03-05T23:51:37.424Z,10.10
2019-03-05T23:54:06.701Z,10.10
2019-03-05T23:56:36.168Z,10.50
2019-03-05T23:59:05.353Z,10.70
